Time;durP1;ratioP1;P1;durP2;ratioP2;P2;SDS_P1;SDS_P2;PMS_P1;PMS_P2;Temp;Humidity;BMP_temperature;BMP_pressure;BME280_temperature;BME280_humidity;BME280_pressure;Samples;Min_cycle;Max_cycle;Signal;HPM_P1;HPM_P2
2023/09/18 00:00:53;;;;;;;12.30;5.10;;;18.00;99.90;;;;;;4957692;29;20179;-79
2023/09/18 00:03:20;;;;;;;12.27;4.63;;;18.10;99.90;;;;;;4958843;29;20179;-79
2023/09/18 00:05:47;;;;;;;15.90;4.77;;;18.10;99.90;;;;;;4958938;28;20608;-79
2023/09/18 00:08:13;;;;;;;15.53;4.50;;;18.10;99.90;;;;;;4958576;29;20178;-79
2023/09/18 00:10:39;;;;;;;17.20;5.27;;;18.10;99.90;;;;;;4957768;29;20179;-80
2023/09/18 00:13:05;;;;;;;15.67;4.80;;;18.10;99.90;;;;;;4957647;28;20185;-79
2023/09/18 00:15:31;;;;;;;14.87;4.23;;;18.10;99.90;;;;;;4957932;28;20260;-79
2023/09/18 00:17:56;;;;;;;19.47;4.53;;;18.10;99.90;;;;;;4957351;28;20258;-79
2023/09/18 00:20:26;;;;;;;11.67;4.70;;;18.00;99.90;;;;;;4957442;29;20179;-79
2023/09/18 00:22:55;;;;;;;18.03;4.97;;;18.00;99.90;;;;;;4957081;29;20749;-79
2023/09/18 00:25:21;;;;;;;12.57;5.03;;;18.00;99.90;;;;;;4957010;29;20681;-79
2023/09/18 00:27:47;;;;;;;14.23;5.50;;;18.00;99.90;;;;;;4958475;29;20184;-81
2023/09/18 00:30:12;;;;;;;12.47;4.53;;;18.00;99.90;;;;;;4958226;29;20175;-79
2023/09/18 00:32:38;;;;;;;9.70;4.47;;;18.00;99.90;;;;;;4957072;29;20199;-79
2023/09/18 00:35:04;;;;;;;16.37;5.37;;;17.90;99.90;;;;;;4957131;28;20183;-79
2023/09/18 00:37:29;;;;;;;19.83;4.27;;;17.90;99.90;;;;;;4956934;29;20182;-79
2023/09/18 00:39:55;;;;;;;14.13;5.00;;;18.00;99.90;;;;;;4957230;28;20171;-79
2023/09/18 00:42:22;;;;;;;16.50;4.87;;;17.90;99.90;;;;;;4956501;29;20203;-80
2023/09/18 00:44:48;;;;;;;10.70;4.87;;;17.90;99.90;;;;;;4956785;29;20171;-79
2023/09/18 00:47:15;;;;;;;13.93;4.60;;;17.90;99.90;;;;;;4957083;29;20226;-78
2023/09/18 00:49:43;;;;;;;13.90;5.07;;;17.90;99.90;;;;;;4956800;29;20717;-79
2023/09/18 00:52:10;;;;;;;10.87;4.47;;;17.90;99.90;;;;;;4956694;29;20261;-79
2023/09/18 00:54:38;;;;;;;13.83;4.67;;;17.90;99.90;;;;;;4957782;29;20262;-79
2023/09/18 00:57:05;;;;;;;12.47;4.83;;;17.80;99.90;;;;;;4958472;28;20179;-79
2023/09/18 00:59:31;;;;;;;11.93;4.33;;;17.80;99.90;;;;;;4958136;29;20230;-79
2023/09/18 01:01:57;;;;;;;12.03;4.80;;;17.80;99.90;;;;;;4957959;28;20234;-79
2023/09/18 01:04:26;;;;;;;13.93;4.77;;;17.80;99.90;;;;;;4957878;28;20175;-79
2023/09/18 01:06:54;;;;;;;11.83;4.17;;;17.80;99.90;;;;;;4956679;29;20591;-79
2023/09/18 01:09:20;;;;;;;22.30;4.53;;;17.80;99.90;;;;;;4958424;29;20174;-79
2023/09/18 01:12:09;;;;;;;10.93;4.20;;;17.70;99.90;;;;;;4958394;28;20191;-79
2023/09/18 01:14:38;;;;;;;28.53;4.50;;;17.80;99.90;;;;;;4948230;28;20287;-79
2023/09/18 01:17:07;;;;;;;15.00;4.67;;;17.70;99.90;;;;;;4956783;29;20175;-79
2023/09/18 01:19:40;;;;;;;16.40;4.70;;;17.70;99.90;;;;;;4958009;29;20270;-79
2023/09/18 01:22:08;;;;;;;14.20;5.53;;;17.70;99.90;;;;;;4956708;29;20245;-80
2023/09/18 01:24:34;;;;;;;10.60;5.27;;;17.70;99.90;;;;;;4958598;29;20228;-79
2023/09/18 01:27:00;;;;;;;22.93;5.97;;;17.70;99.90;;;;;;4957666;28;20178;-81
2023/09/18 01:29:26;;;;;;;12.37;5.13;;;17.70;99.90;;;;;;4956837;29;20175;-79
2023/09/18 01:31:52;;;;;;;12.83;5.13;;;17.60;99.90;;;;;;4956048;29;20202;-79
2023/09/18 01:34:21;;;;;;;19.60;5.80;;;17.70;99.90;;;;;;4958260;29;20485;-79
2023/09/18 01:36:47;;;;;;;11.47;5.73;;;17.80;99.90;;;;;;4957955;29;20183;-79
2023/09/18 01:39:13;;;;;;;18.00;5.13;;;17.60;99.90;;;;;;4956228;29;20283;-79
2023/09/18 01:41:40;;;;;;;14.27;6.20;;;17.70;99.90;;;;;;4957353;29;20203;-79
2023/09/18 01:44:06;;;;;;;14.73;5.17;;;17.60;99.90;;;;;;4958190;29;20171;-79
2023/09/18 01:46:36;;;;;;;16.87;5.40;;;17.60;99.90;;;;;;4958129;28;20178;-79
2023/09/18 01:49:04;;;;;;;15.73;5.17;;;17.60;99.90;;;;;;4957659;28;20605;-79
2023/09/18 01:51:30;;;;;;;15.57;4.80;;;17.60;99.90;;;;;;4958334;29;20255;-80
2023/09/18 01:53:56;;;;;;;15.40;5.00;;;17.60;99.90;;;;;;4958854;28;20523;-79
2023/09/18 01:56:23;;;;;;;12.97;5.10;;;17.70;99.90;;;;;;4956073;29;20179;-80
2023/09/18 01:58:49;;;;;;;9.73;5.27;;;17.60;99.90;;;;;;4955876;29;20183;-79
2023/09/18 02:01:14;;;;;;;18.17;5.07;;;17.50;99.90;;;;;;4955831;28;20206;-79
2023/09/18 02:03:41;;;;;;;9.80;5.00;;;17.60;99.90;;;;;;4957436;29;20233;-80
2023/09/18 02:06:10;;;;;;;18.63;4.97;;;17.50;99.90;;;;;;4956794;28;20178;-80
2023/09/18 02:08:35;;;;;;;16.63;4.90;;;17.50;99.90;;;;;;4955411;29;20647;-79
2023/09/18 02:11:02;;;;;;;11.40;5.20;;;17.50;99.90;;;;;;4957470;29;20197;-79
2023/09/18 02:13:27;;;;;;;14.43;4.80;;;17.50;99.90;;;;;;4956756;29;20178;-79
2023/09/18 02:15:55;;;;;;;12.50;4.77;;;17.50;99.90;;;;;;4957292;28;20257;-80
2023/09/18 02:18:20;;;;;;;15.10;5.00;;;17.50;99.90;;;;;;4954980;29;20721;-79
2023/09/18 02:20:48;;;;;;;12.83;5.23;;;17.50;99.90;;;;;;4956610;29;20174;-80
2023/09/18 02:23:15;;;;;;;23.93;5.77;;;17.50;99.90;;;;;;4956871;29;20218;-79
2023/09/18 02:25:40;;;;;;;13.90;5.10;;;17.60;99.90;;;;;;4955364;28;20171;-80
2023/09/18 02:28:07;;;;;;;15.33;5.00;;;17.40;99.90;;;;;;4955674;29;20230;-80
2023/09/18 02:30:32;;;;;;;15.30;4.83;;;17.60;99.90;;;;;;4955562;28;20618;-79
2023/09/18 02:32:59;;;;;;;17.33;5.10;;;17.50;99.90;;;;;;4957378;29;20195;-79
2023/09/18 02:35:25;;;;;;;23.17;5.63;;;17.60;99.90;;;;;;4956651;28;20179;-80
2023/09/18 02:37:50;;;;;;;19.13;6.03;;;17.50;99.90;;;;;;4955988;28;20302;-79
2023/09/18 02:40:16;;;;;;;14.97;5.43;;;17.50;99.90;;;;;;4956895;28;20175;-80
2023/09/18 02:42:41;;;;;;;19.77;5.50;;;17.50;99.90;;;;;;4956347;28;20195;-79
2023/09/18 02:45:09;;;;;;;15.20;5.70;;;17.70;99.90;;;;;;4956243;29;20251;-79
2023/09/18 02:47:37;;;;;;;13.33;5.77;;;17.50;99.90;;;;;;4956503;28;20722;-79
2023/09/18 02:50:04;;;;;;;12.53;5.20;;;17.50;99.90;;;;;;4954892;28;20175;-79
2023/09/18 02:52:29;;;;;;;18.27;5.53;;;17.50;99.90;;;;;;4955137;29;20270;-79
2023/09/18 02:54:55;;;;;;;14.13;6.17;;;17.50;99.90;;;;;;4955074;29;20178;-79
2023/09/18 02:57:20;;;;;;;15.70;5.80;;;17.50;99.90;;;;;;4955076;29;20179;-79
2023/09/18 02:59:46;;;;;;;15.77;6.00;;;17.50;99.90;;;;;;4954766;29;20178;-79
2023/09/18 03:02:11;;;;;;;11.90;5.83;;;17.50;99.90;;;;;;4954958;29;20210;-79
2023/09/18 03:04:37;;;;;;;12.53;5.73;;;17.60;99.90;;;;;;4956348;29;20186;-80
2023/09/18 03:07:03;;;;;;;10.63;6.07;;;17.70;99.90;;;;;;4957026;29;20175;-80
2023/09/18 03:09:29;;;;;;;11.90;6.67;;;17.70;99.90;;;;;;4956904;28;20259;-81
2023/09/18 03:11:55;;;;;;;11.23;6.27;;;17.80;99.90;;;;;;4955842;29;20693;-81
2023/09/18 03:14:20;;;;;;;10.30;6.80;;;17.90;99.90;;;;;;4955935;29;20187;-79
2023/09/18 03:16:46;;;;;;;12.03;6.43;;;18.00;99.90;;;;;;4956301;29;20263;-79
2023/09/18 03:19:12;;;;;;;10.00;7.03;;;18.10;99.90;;;;;;4956410;28;20594;-79
2023/09/18 03:21:38;;;;;;;9.80;6.20;;;18.10;99.90;;;;;;4955009;29;20214;-79
2023/09/18 03:24:04;;;;;;;9.43;6.13;;;18.20;99.90;;;;;;4955372;28;20187;-79
2023/09/18 03:26:30;;;;;;;13.83;6.40;;;18.30;99.90;;;;;;4954632;28;20654;-79
2023/09/18 03:28:55;;;;;;;12.30;6.30;;;18.30;99.90;;;;;;4972118;28;20228;-79
2023/09/18 03:31:21;;;;;;;17.60;6.40;;;18.40;99.90;;;;;;4975579;28;20210;-79
2023/09/18 03:33:46;;;;;;;9.80;5.47;;;18.50;99.90;;;;;;4976430;28;20238;-78
2023/09/18 03:36:13;;;;;;;10.63;5.97;;;18.50;99.90;;;;;;4973983;28;20194;-80
2023/09/18 03:38:39;;;;;;;11.13;5.90;;;18.50;99.90;;;;;;4974304;28;20237;-78
2023/09/18 03:41:04;;;;;;;15.97;5.53;;;18.60;99.90;;;;;;4975830;28;20198;-79
2023/09/18 03:43:30;;;;;;;9.33;5.57;;;18.60;99.90;;;;;;4974301;28;20174;-79
2023/09/18 03:46:03;;;;;;;12.60;5.53;;;18.60;99.90;;;;;;4974085;28;20261;-79
2023/09/18 03:48:30;;;;;;;9.63;5.10;;;18.70;99.90;;;;;;4976761;28;20162;-79
2023/09/18 03:50:56;;;;;;;13.53;5.60;;;18.70;99.90;;;;;;4977916;28;20174;-79
2023/09/18 03:53:21;;;;;;;12.50;5.37;;;18.80;99.90;;;;;;4979661;28;20600;-79
2023/09/18 03:55:48;;;;;;;13.57;5.70;;;18.60;99.90;;;;;;4979405;28;20178;-79
2023/09/18 03:58:14;;;;;;;6.77;4.50;;;18.80;99.90;;;;;;4979634;28;20174;-79
2023/09/18 04:00:39;;;;;;;7.93;5.10;;;18.80;99.90;;;;;;4977542;28;20170;-80
2023/09/18 04:03:05;;;;;;;11.43;5.40;;;18.80;99.90;;;;;;4978992;28;20211;-79
2023/09/18 04:05:31;;;;;;;12.13;5.60;;;19.00;99.90;;;;;;4979108;28;20513;-79
2023/09/18 04:07:56;;;;;;;10.17;5.50;;;18.90;99.90;;;;;;4978869;28;20171;-79
2023/09/18 04:10:22;;;;;;;12.73;4.80;;;18.80;99.90;;;;;;4977586;28;20179;-79
2023/09/18 04:12:50;;;;;;;10.50;5.00;;;18.80;99.90;;;;;;4978375;28;20286;-79
2023/09/18 04:15:18;;;;;;;8.70;5.70;;;18.90;99.90;;;;;;4979850;28;20660;-79
2023/09/18 04:17:44;;;;;;;8.97;5.03;;;19.00;99.90;;;;;;4977959;28;20182;-81
2023/09/18 04:20:10;;;;;;;10.50;5.00;;;19.00;99.90;;;;;;4977870;28;20182;-79
2023/09/18 04:22:36;;;;;;;12.13;5.03;;;19.00;99.90;;;;;;4978360;28;20257;-79
2023/09/18 04:25:05;;;;;;;12.10;5.30;;;19.10;99.90;;;;;;4978634;28;20178;-79
2023/09/18 04:27:31;;;;;;;12.10;5.03;;;19.00;99.90;;;;;;4977576;28;20198;-79
2023/09/18 04:29:56;;;;;;;10.07;5.47;;;19.00;99.90;;;;;;4977272;28;20362;-78
2023/09/18 04:32:22;;;;;;;14.33;4.60;;;19.10;99.90;;;;;;4978389;28;20229;-79
2023/09/18 04:34:47;;;;;;;16.33;5.20;;;19.10;99.90;;;;;;4978357;28;20634;-79
2023/09/18 04:37:13;;;;;;;10.13;5.30;;;19.20;99.90;;;;;;4976033;28;20585;-79
2023/09/18 04:39:38;;;;;;;11.10;5.23;;;19.20;99.90;;;;;;4979124;28;20304;-79
2023/09/18 04:42:04;;;;;;;12.80;5.03;;;19.20;99.90;;;;;;4976907;28;20221;-79
2023/09/18 04:44:30;;;;;;;12.23;4.93;;;19.20;99.90;;;;;;4976501;28;20175;-79
2023/09/18 04:46:57;;;;;;;8.63;4.53;;;19.20;99.90;;;;;;4977102;28;20175;-79
2023/09/18 04:49:23;;;;;;;9.70;4.73;;;19.20;99.90;;;;;;4976627;28;20237;-80
2023/09/18 04:51:49;;;;;;;12.50;5.20;;;19.30;99.90;;;;;;4977604;28;20237;-79
2023/09/18 04:54:15;;;;;;;13.03;5.00;;;19.30;99.90;;;;;;4977305;28;20658;-79
2023/09/18 04:56:41;;;;;;;11.50;5.60;;;19.40;99.90;;;;;;4979188;28;20257;-79
2023/09/18 04:59:06;;;;;;;13.87;5.77;;;19.30;99.90;;;;;;4978420;28;20233;-79
2023/09/18 05:01:32;;;;;;;10.03;5.30;;;19.30;99.90;;;;;;4976069;28;20666;-80
2023/09/18 05:03:57;;;;;;;12.00;5.20;;;19.20;99.90;;;;;;4979423;28;20166;-79
2023/09/18 05:06:23;;;;;;;11.93;5.37;;;19.30;99.90;;;;;;4983539;28;20185;-81
2023/09/18 05:08:48;;;;;;;10.53;4.80;;;19.30;99.90;;;;;;4988424;28;20186;-79
2023/09/18 05:11:14;;;;;;;14.27;5.13;;;19.40;99.90;;;;;;4988719;28;20198;-79
2023/09/18 05:13:40;;;;;;;10.07;4.90;;;19.30;99.90;;;;;;4990949;28;20182;-79
2023/09/18 05:16:05;;;;;;;7.07;5.07;;;19.20;99.90;;;;;;4989684;28;20178;-79
2023/09/18 05:18:31;;;;;;;7.73;5.40;;;19.20;99.90;;;;;;4989049;28;20174;-79
2023/09/18 05:21:01;;;;;;;8.80;4.87;;;19.20;99.90;;;;;;4986678;28;20179;-78
2023/09/18 05:23:26;;;;;;;11.93;5.33;;;19.20;99.90;;;;;;4987397;28;20170;-79
2023/09/18 05:25:53;;;;;;;8.67;4.90;;;19.10;99.90;;;;;;4983227;28;20263;-79
2023/09/18 05:28:21;;;;;;;9.80;5.50;;;19.30;99.90;;;;;;4981708;28;20178;-79
2023/09/18 05:30:47;;;;;;;13.57;5.43;;;19.20;99.90;;;;;;4986415;28;20235;-79
2023/09/18 05:33:13;;;;;;;9.80;5.53;;;19.20;99.90;;;;;;4990235;28;20210;-79
2023/09/18 05:35:44;;;;;;;6.73;4.90;;;19.30;99.90;;;;;;4990741;28;20273;-79
2023/09/18 05:38:10;;;;;;;12.57;5.07;;;19.20;99.90;;;;;;4982744;28;20201;-79
2023/09/18 05:40:37;;;;;;;8.50;4.90;;;19.20;99.90;;;;;;4978190;28;20221;-80
2023/09/18 05:43:02;;;;;;;14.97;5.10;;;19.20;99.90;;;;;;4982122;28;20257;-79
2023/09/18 05:45:28;;;;;;;8.37;5.00;;;19.20;99.90;;;;;;4983240;28;20190;-81
2023/09/18 05:48:01;;;;;;;8.53;4.93;;;19.30;99.90;;;;;;4980636;28;20194;-77
2023/09/18 05:50:29;;;;;;;12.17;4.73;;;19.20;99.90;;;;;;4980122;28;20608;-78
2023/09/18 05:52:54;;;;;;;13.17;4.70;;;19.20;99.90;;;;;;4981464;28;20206;-78
2023/09/18 05:55:20;;;;;;;10.63;3.80;;;19.20;99.90;;;;;;4983956;28;20697;-78
2023/09/18 05:57:45;;;;;;;14.00;5.10;;;19.20;99.90;;;;;;4984699;28;20182;-78
2023/09/18 06:00:12;;;;;;;10.33;5.00;;;19.30;99.90;;;;;;4984728;28;20182;-77
2023/09/18 06:02:39;;;;;;;10.17;5.00;;;19.20;99.90;;;;;;4976521;28;20573;-77
2023/09/18 06:05:06;;;;;;;11.90;5.13;;;19.30;99.90;;;;;;4976245;28;20189;-77
2023/09/18 06:07:32;;;;;;;10.20;4.63;;;19.20;99.90;;;;;;4977774;28;20174;-77
2023/09/18 06:09:58;;;;;;;12.43;4.43;;;19.30;99.90;;;;;;4975821;28;20263;-77
2023/09/18 06:12:24;;;;;;;7.30;4.03;;;19.30;99.90;;;;;;4972674;28;20213;-77
2023/09/18 06:14:50;;;;;;;16.83;4.97;;;19.30;99.90;;;;;;4974580;28;20261;-78
2023/09/18 06:17:16;;;;;;;9.13;4.30;;;19.30;99.90;;;;;;4974544;28;20217;-76
2023/09/18 06:19:42;;;;;;;10.57;4.30;;;19.40;99.90;;;;;;4974226;28;20178;-77
2023/09/18 06:22:08;;;;;;;9.83;4.13;;;19.30;99.90;;;;;;4974333;28;20549;-77
2023/09/18 06:24:34;;;;;;;9.20;3.70;;;19.30;99.90;;;;;;4974298;28;20185;-77
2023/09/18 06:27:00;;;;;;;11.10;4.50;;;19.40;99.90;;;;;;4974041;28;20178;-77
2023/09/18 06:29:26;;;;;;;10.73;4.43;;;19.40;99.90;;;;;;4972885;28;20175;-77
2023/09/18 06:31:51;;;;;;;8.10;4.03;;;19.40;99.90;;;;;;4974049;28;20788;-77
2023/09/18 06:34:17;;;;;;;8.33;3.87;;;19.40;99.90;;;;;;4974809;28;20255;-77
2023/09/18 06:36:43;;;;;;;7.77;3.50;;;19.40;99.90;;;;;;4974852;28;20245;-78
2023/09/18 06:39:08;;;;;;;9.30;3.70;;;19.40;99.90;;;;;;4973437;28;20194;-77
2023/09/18 06:41:34;;;;;;;9.20;3.50;;;19.50;99.90;;;;;;4974808;28;20340;-77
2023/09/18 06:44:03;;;;;;;8.93;3.60;;;19.50;99.90;;;;;;4974964;28;20242;-78
2023/09/18 06:46:29;;;;;;;8.70;3.90;;;19.50;99.90;;;;;;4974816;28;20213;-77
2023/09/18 06:48:56;;;;;;;12.23;3.90;;;19.50;99.90;;;;;;4976812;28;20174;-78
2023/09/18 06:51:22;;;;;;;7.83;3.53;;;19.50;99.90;;;;;;4975529;28;20198;-77
2023/09/18 06:53:48;;;;;;;10.60;3.50;;;19.60;99.90;;;;;;4975261;28;20182;-78
2023/09/18 06:56:14;;;;;;;7.83;3.10;;;19.60;99.90;;;;;;4977005;28;20554;-78
2023/09/18 06:58:39;;;;;;;9.53;3.00;;;19.60;99.90;;;;;;4980478;28;20202;-78
2023/09/18 07:01:09;;;;;;;5.13;2.90;;;19.70;99.90;;;;;;4981988;28;20194;-77
2023/09/18 07:03:36;;;;;;;5.80;3.33;;;19.70;99.90;;;;;;4981434;28;20178;-77
2023/09/18 07:06:02;;;;;;;8.30;3.03;;;19.70;99.90;;;;;;4981342;28;20201;-77
2023/09/18 07:08:28;;;;;;;8.30;3.17;;;19.70;99.90;;;;;;4979921;28;20174;-78
2023/09/18 07:10:53;;;;;;;7.00;2.70;;;19.70;99.90;;;;;;4982050;28;20184;-77
2023/09/18 07:13:19;;;;;;;6.37;2.57;;;19.80;99.90;;;;;;4976990;28;20189;-77
2023/09/18 07:15:44;;;;;;;5.37;2.63;;;19.80;99.90;;;;;;4973679;28;20189;-78
2023/09/18 07:18:14;;;;;;;8.73;2.40;;;19.80;99.90;;;;;;4973845;28;20189;-78
2023/09/18 07:20:40;;;;;;;6.17;2.87;;;19.80;99.90;;;;;;4974958;28;20179;-79
2023/09/18 07:23:05;;;;;;;6.63;2.13;;;19.90;99.90;;;;;;4975143;28;20361;-77
2023/09/18 07:25:31;;;;;;;7.37;2.30;;;19.90;99.90;;;;;;4979965;28;20222;-78
2023/09/18 07:27:57;;;;;;;5.67;2.20;;;19.90;99.90;;;;;;4981092;28;20185;-79
2023/09/18 07:30:26;;;;;;;7.07;2.10;;;19.90;99.90;;;;;;4981711;28;20170;-79
2023/09/18 07:32:57;;;;;;;4.90;2.17;;;19.90;99.90;;;;;;4981469;28;20266;-79
2023/09/18 07:35:24;;;;;;;5.80;1.90;;;20.00;99.90;;;;;;4980204;28;20178;-79
2023/09/18 07:37:49;;;;;;;6.77;2.10;;;20.00;99.90;;;;;;4980874;28;20204;-78
2023/09/18 07:40:18;;;;;;;6.13;2.00;;;20.00;99.90;;;;;;4979383;28;20241;-77
2023/09/18 07:42:44;;;;;;;4.30;1.93;;;20.00;99.90;;;;;;4978044;28;20248;-78
2023/09/18 07:45:10;;;;;;;6.83;2.00;;;20.00;99.90;;;;;;4976773;28;20567;-77
2023/09/18 07:47:36;;;;;;;10.30;2.37;;;20.00;99.90;;;;;;4977885;28;20201;-77
2023/09/18 07:50:01;;;;;;;9.03;2.40;;;20.00;99.90;;;;;;4978266;28;20662;-76
2023/09/18 07:52:28;;;;;;;5.33;2.37;;;20.10;99.90;;;;;;4977563;28;20206;-78
2023/09/18 07:54:53;;;;;;;7.70;2.13;;;20.10;99.90;;;;;;4976670;28;20237;-78
2023/09/18 07:57:20;;;;;;;7.70;1.90;;;20.00;99.90;;;;;;4976798;28;20565;-78
2023/09/18 07:59:46;;;;;;;5.33;1.83;;;20.10;99.90;;;;;;4977930;28;20178;-79
2023/09/18 08:02:11;;;;;;;5.40;1.90;;;20.20;99.90;;;;;;4976253;28;20440;-78
2023/09/18 08:04:37;;;;;;;8.23;1.70;;;20.20;99.90;;;;;;4978286;28;20181;-78
2023/09/18 08:07:05;;;;;;;6.93;2.10;;;20.20;99.90;;;;;;4976437;28;20178;-78
2023/09/18 08:09:31;;;;;;;5.50;1.57;;;20.30;99.90;;;;;;4978014;28;20230;-78
2023/09/18 08:11:57;;;;;;;6.70;2.13;;;20.30;99.90;;;;;;4981138;28;20201;-78
2023/09/18 08:14:22;;;;;;;7.50;1.90;;;20.30;99.90;;;;;;4982794;28;20205;-77
2023/09/18 08:16:48;;;;;;;5.67;1.80;;;20.30;99.90;;;;;;4983511;28;20183;-78
2023/09/18 08:19:16;;;;;;;4.37;1.60;;;20.30;99.90;;;;;;4979267;28;20181;-77
2023/09/18 08:21:42;;;;;;;5.67;1.80;;;20.40;99.90;;;;;;4982709;28;20217;-77
2023/09/18 08:24:08;;;;;;;2.23;1.53;;;20.20;99.90;;;;;;4982284;28;20178;-77
2023/09/18 08:26:33;;;;;;;5.43;1.57;;;20.40;99.90;;;;;;4981856;28;20178;-77
2023/09/18 08:28:59;;;;;;;4.40;1.47;;;20.40;99.90;;;;;;4984701;28;20183;-77
2023/09/18 08:31:27;;;;;;;5.83;1.50;;;20.40;99.90;;;;;;4982361;28;20198;-77
2023/09/18 08:33:52;;;;;;;2.53;1.30;;;20.50;99.90;;;;;;4983565;28;20178;-77
2023/09/18 08:36:18;;;;;;;3.57;1.67;;;20.40;99.90;;;;;;4982127;28;20182;-77
2023/09/18 08:38:43;;;;;;;4.03;1.83;;;20.50;99.90;;;;;;4980599;28;20201;-77
2023/09/18 08:41:11;;;;;;;4.67;1.33;;;20.70;99.90;;;;;;4983028;28;20194;-77
2023/09/18 08:43:39;;;;;;;3.47;1.30;;;20.60;99.90;;;;;;4983090;28;20166;-77
2023/09/18 08:46:05;;;;;;;3.50;1.40;;;20.50;99.90;;;;;;4982642;28;20201;-77
2023/09/18 08:48:34;;;;;;;3.93;1.40;;;20.50;99.90;;;;;;4982684;28;20651;-77
2023/09/18 08:51:05;;;;;;;3.80;1.40;;;20.60;99.90;;;;;;4982296;28;20245;-77
2023/09/18 08:53:32;;;;;;;2.53;1.37;;;20.60;99.90;;;;;;4982762;28;20191;-78
2023/09/18 08:56:01;;;;;;;4.50;1.57;;;20.60;99.90;;;;;;4984005;28;20175;-77
2023/09/18 08:58:28;;;;;;;2.63;1.37;;;20.70;99.90;;;;;;4983779;28;20182;-78
2023/09/18 09:00:53;;;;;;;3.40;1.50;;;20.60;99.90;;;;;;4983229;28;20182;-78
2023/09/18 09:03:19;;;;;;;5.73;1.63;;;20.70;99.90;;;;;;4983718;28;20206;-77
2023/09/18 09:05:44;;;;;;;3.90;1.33;;;20.70;99.90;;;;;;4991040;28;20175;-77
2023/09/18 09:08:10;;;;;;;4.20;1.50;;;20.70;99.90;;;;;;4985731;28;20170;-77
2023/09/18 09:10:36;;;;;;;5.07;1.30;;;20.70;99.90;;;;;;4986523;28;20281;-78
2023/09/18 09:13:02;;;;;;;4.67;1.70;;;20.80;99.90;;;;;;4987697;28;20257;-77
2023/09/18 09:15:57;;;;;;;2.40;1.40;;;20.80;99.90;;;;;;4982271;28;20190;-78
2023/09/18 09:18:25;;;;;;;3.73;1.20;;;20.90;99.90;;;;;;4982150;28;20193;-77
2023/09/18 09:20:59;;;;;;;5.83;1.67;;;20.90;99.90;;;;;;4981378;28;20179;-77
2023/09/18 09:23:29;;;;;;;2.87;1.47;;;21.00;99.90;;;;;;4985385;28;20201;-77
2023/09/18 09:26:16;;;;;;;6.37;1.57;;;21.00;99.90;;;;;;4980047;28;20190;-77
2023/09/18 09:28:43;;;;;;;1.80;1.20;;;21.10;99.90;;;;;;4981618;28;20185;-77
2023/09/18 09:31:10;;;;;;;2.37;1.10;;;21.20;99.90;;;;;;4986593;28;20297;-77
2023/09/18 09:33:38;;;;;;;4.60;1.53;;;21.10;99.90;;;;;;4982568;28;20238;-77
2023/09/18 09:36:05;;;;;;;5.47;1.43;;;21.20;99.90;;;;;;4982237;28;20182;-77
2023/09/18 09:38:33;;;;;;;7.60;1.47;;;21.20;99.90;;;;;;4981296;28;20193;-78
2023/09/18 09:41:00;;;;;;;5.70;1.73;;;21.30;99.90;;;;;;4978598;28;20248;-78
2023/09/18 09:43:26;;;;;;;4.33;1.30;;;21.30;99.90;;;;;;4977832;28;20209;-77
2023/09/18 09:45:58;;;;;;;3.97;1.50;;;21.40;99.90;;;;;;4980966;28;20197;-78
2023/09/18 09:48:25;;;;;;;7.33;1.60;;;21.30;99.90;;;;;;4982957;28;20221;-77
2023/09/18 09:50:51;;;;;;;2.97;1.20;;;21.30;99.90;;;;;;4981126;28;20174;-79
2023/09/18 09:53:18;;;;;;;3.67;1.13;;;21.30;99.90;;;;;;4987412;28;20245;-77
2023/09/18 09:55:44;;;;;;;4.10;1.50;;;21.20;99.90;;;;;;4982309;28;20180;-77
2023/09/18 09:58:10;;;;;;;3.07;1.50;;;21.30;99.90;;;;;;4980189;28;20193;-77
2023/09/18 10:00:43;;;;;;;6.07;1.30;;;21.30;99.90;;;;;;4979697;28;20638;-78
2023/09/18 10:03:14;;;;;;;4.40;1.30;;;21.40;99.90;;;;;;4983427;28;20198;-77
2023/09/18 10:05:43;;;;;;;2.73;1.53;;;21.40;99.90;;;;;;4981474;28;20174;-77
2023/09/18 10:08:18;;;;;;;3.00;1.47;;;21.50;99.90;;;;;;4986353;28;20561;-78
2023/09/18 10:10:49;;;;;;;1.93;1.10;;;21.50;99.90;;;;;;4983335;28;20213;-78
2023/09/18 10:13:17;;;;;;;4.57;1.33;;;21.70;99.90;;;;;;4980688;28;20182;-77
2023/09/18 10:15:46;;;;;;;4.83;1.50;;;21.60;99.90;;;;;;4982528;28;20197;-78
2023/09/18 10:18:47;;;;;;;3.27;1.37;;;21.60;99.90;;;;;;4981302;28;20257;-77
2023/09/18 10:21:24;;;;;;;3.10;1.10;;;21.70;99.90;;;;;;4982411;28;20210;-77
2023/09/18 10:24:14;;;;;;;2.67;1.47;;;21.80;99.90;;;;;;4980365;28;20154;-78
2023/09/18 10:26:53;;;;;;;2.37;1.10;;;21.80;1.00;;;;;;4978943;28;20159;-78
2023/09/18 10:29:20;;;;;;;2.50;1.90;;;21.80;1.00;;;;;;4981016;28;20265;-77
2023/09/18 10:31:48;;;;;;;2.73;1.40;;;21.70;16.70;;;;;;4984583;28;20197;-78
2023/09/18 10:34:15;;;;;;;2.53;1.30;;;21.90;99.90;;;;;;4988415;28;20165;-78
2023/09/18 10:36:41;;;;;;;5.90;1.40;;;22.00;99.90;;;;;;4988816;28;20180;-78
2023/09/18 10:39:10;;;;;;;4.80;1.63;;;22.00;99.90;;;;;;4986837;28;20225;-78
2023/09/18 10:41:37;;;;;;;3.70;1.37;;;22.20;99.90;;;;;;4983956;28;20657;-78
2023/09/18 10:44:04;;;;;;;6.10;1.40;;;22.20;99.90;;;;;;4986949;28;20193;-77
2023/09/18 10:46:30;;;;;;;4.30;1.60;;;22.20;98.40;;;;;;4985631;28;20183;-78
2023/09/18 10:48:56;;;;;;;2.87;1.53;;;22.30;1.00;;;;;;4983230;28;20213;-78
2023/09/18 10:51:23;;;;;;;2.93;1.53;;;22.40;1.00;;;;;;4980998;28;20194;-78
2023/09/18 10:53:49;;;;;;;3.57;1.50;;;22.40;45.80;;;;;;4985396;28;20272;-78
2023/09/18 10:56:16;;;;;;;4.00;1.53;;;22.40;55.70;;;;;;4986718;28;20179;-78
2023/09/18 10:58:43;;;;;;;4.73;1.50;;;22.40;1.00;;;;;;4979568;28;20527;-78
2023/09/18 11:01:14;;;;;;;3.77;1.70;;;22.30;99.90;;;;;;4980474;28;20205;-79
2023/09/18 11:03:41;;;;;;;6.53;1.40;;;22.50;99.90;;;;;;4980262;28;20189;-78
2023/09/18 11:06:11;;;;;;;6.43;1.70;;;22.60;1.00;;;;;;4976900;28;20518;-78
2023/09/18 11:08:49;;;;;;;3.80;1.60;;;22.60;99.90;;;;;;4976965;28;20170;-78
2023/09/18 11:11:20;;;;;;;5.57;1.90;;;22.80;1.00;;;;;;4974751;28;20193;-78
2023/09/18 11:13:55;;;;;;;4.13;1.50;;;22.80;1.00;;;;;;4975365;28;20205;-78
2023/09/18 11:16:26;;;;;;;5.80;1.80;;;22.80;1.00;;;;;;4974604;28;20185;-78
2023/09/18 11:18:58;;;;;;;5.00;1.70;;;22.90;1.00;;;;;;4977839;28;20269;-78
2023/09/18 11:21:29;;;;;;;4.97;1.70;;;23.00;1.00;;;;;;4975250;28;20205;-78
2023/09/18 11:24:17;;;;;;;6.03;1.73;;;23.10;99.90;;;;;;4974799;28;20285;-78
2023/09/18 11:26:44;;;;;;;4.70;1.60;;;23.10;1.00;;;;;;4976328;28;20526;-78
2023/09/18 11:29:11;;;;;;;3.13;1.33;;;23.10;78.20;;;;;;4975575;28;20228;-78
2023/09/18 11:31:50;;;;;;;3.33;1.43;;;23.00;1.00;;;;;;4972445;28;20336;-78
2023/09/18 11:34:31;;;;;;;3.10;1.53;;;23.20;99.90;;;;;;4973125;28;20150;-80
2023/09/18 11:36:57;;;;;;;7.20;1.67;;;23.30;1.00;;;;;;4973184;28;20158;-79
2023/09/18 11:39:44;;;;;;;6.50;1.60;;;23.40;99.90;;;;;;4972639;28;20206;-78
2023/09/18 11:42:16;;;;;;;6.73;1.70;;;23.50;1.00;;;;;;4972326;28;20744;-78
2023/09/18 11:44:46;;;;;;;3.23;1.60;;;23.50;62.70;;;;;;4973787;28;20155;-78
2023/09/18 11:47:19;;;;;;;4.57;1.40;;;23.30;99.90;;;;;;4972362;28;20174;-78
2023/09/18 11:49:54;;;;;;;4.17;1.40;;;23.40;1.00;;;;;;4973836;28;20526;-78
2023/09/18 11:52:21;;;;;;;7.33;1.77;;;23.40;1.00;;;;;;4973828;28;20502;-78
2023/09/18 11:54:47;;;;;;;7.63;1.73;;;23.50;99.90;;;;;;4974014;28;20201;-78
2023/09/18 11:57:14;;;;;;;4.33;1.80;;;23.50;1.00;;;;;;4973524;28;20646;-78
2023/09/18 11:59:42;;;;;;;6.37;1.47;;;23.60;1.00;;;;;;4973202;28;20655;-78
2023/09/18 12:02:09;;;;;;;4.77;1.67;;;23.70;99.90;;;;;;4973122;28;20621;-78
2023/09/18 12:04:36;;;;;;;2.87;1.50;;;23.80;1.00;;;;;;4972952;28;20166;-78
2023/09/18 12:07:04;;;;;;;4.47;1.60;;;24.00;1.00;;;;;;4973413;28;20182;-77
2023/09/18 12:09:31;;;;;;;2.47;1.50;;;24.00;1.00;;;;;;4971753;28;20253;-77
2023/09/18 12:11:58;;;;;;;3.47;1.40;;;24.00;99.90;;;;;;4975790;28;20194;-77
2023/09/18 12:14:24;;;;;;;4.50;1.60;;;24.00;1.00;;;;;;4976455;28;20185;-78
2023/09/18 12:16:50;;;;;;;3.57;1.53;;;24.00;1.00;;;;;;4976337;28;20174;-78
2023/09/18 12:19:19;;;;;;;2.43;1.50;;;24.00;1.00;;;;;;4975016;28;20182;-77
2023/09/18 12:21:48;;;;;;;3.47;1.40;;;24.10;1.00;;;;;;4976173;28;20265;-77
2023/09/18 12:24:20;;;;;;;6.63;1.60;;;24.20;1.00;;;;;;4975099;28;20185;-77
2023/09/18 12:26:45;;;;;;;5.07;1.90;;;24.10;1.00;;;;;;4976649;28;20214;-78
2023/09/18 12:29:11;;;;;;;2.00;1.40;;;23.90;1.00;;;;;;4976185;28;20166;-78
2023/09/18 12:31:37;;;;;;;1.83;1.20;;;23.80;1.00;;;;;;4976011;28;20190;-77
2023/09/18 12:34:03;;;;;;;5.90;1.53;;;23.80;1.00;;;;;;4975212;28;20183;-78
2023/09/18 12:36:30;;;;;;;4.83;1.67;;;23.80;1.00;;;;;;4976465;28;20186;-77
2023/09/18 12:39:03;;;;;;;10.23;1.90;;;23.80;71.70;;;;;;4974607;28;20201;-77
2023/09/18 12:41:30;;;;;;;8.40;1.60;;;23.90;39.50;;;;;;4975876;28;20190;-77
2023/09/18 12:43:56;;;;;;;5.83;1.50;;;23.90;14.70;;;;;;4976170;28;20167;-77